sensor_id;sensor_type;location;lat;lon;timestamp;P1;durP1;ratioP1;P2;durP2;ratioP2
37280;SDS011;23169;41.804;12.596;2023-04-24T00:00:23;14.88;;;4.28;;
37280;SDS011;23169;41.804;12.596;2023-04-24T00:02:52;12.00;;;4.25;;
37280;SDS011;23169;41.804;12.596;2023-04-24T00:05:25;7.78;;;3.30;;
37280;SDS011;23169;41.804;12.596;2023-04-24T00:07:53;9.93;;;3.72;;
37280;SDS011;23169;41.804;12.596;2023-04-24T00:10:23;9.85;;;3.60;;
37280;SDS011;23169;41.804;12.596;2023-04-24T00:12:52;10.30;;;4.32;;
37280;SDS011;23169;41.804;12.596;2023-04-24T00:15:21;16.65;;;3.80;;
37280;SDS011;23169;41.804;12.596;2023-04-24T00:17:49;14.75;;;4.25;;
37280;SDS011;23169;41.804;12.596;2023-04-24T00:20:19;12.30;;;4.18;;
37280;SDS011;23169;41.804;12.596;2023-04-24T00:22:51;16.10;;;3.85;;
37280;SDS011;23169;41.804;12.596;2023-04-24T00:25:19;10.20;;;4.30;;
37280;SDS011;23169;41.804;12.596;2023-04-24T00:27:48;13.40;;;4.55;;
37280;SDS011;23169;41.804;12.596;2023-04-24T00:30:17;12.73;;;4.07;;
37280;SDS011;23169;41.804;12.596;2023-04-24T00:32:46;16.27;;;4.25;;
37280;SDS011;23169;41.804;12.596;2023-04-24T00:35:14;10.63;;;3.80;;
37280;SDS011;23169;41.804;12.596;2023-04-24T00:37:43;13.82;;;4.15;;
37280;SDS011;23169;41.804;12.596;2023-04-24T00:40:12;11.25;;;3.75;;
37280;SDS011;23169;41.804;12.596;2023-04-24T00:42:41;10.27;;;3.55;;
37280;SDS011;23169;41.804;12.596;2023-04-24T00:45:11;10.82;;;3.45;;
37280;SDS011;23169;41.804;12.596;2023-04-24T00:47:41;11.45;;;3.80;;
37280;SDS011;23169;41.804;12.596;2023-04-24T00:50:10;9.13;;;3.60;;
37280;SDS011;23169;41.804;12.596;2023-04-24T00:52:42;9.50;;;3.58;;
37280;SDS011;23169;41.804;12.596;2023-04-24T00:55:11;8.95;;;4.28;;
37280;SDS011;23169;41.804;12.596;2023-04-24T00:57:40;10.27;;;3.22;;
37280;SDS011;23169;41.804;12.596;2023-04-24T01:00:16;11.88;;;4.07;;
37280;SDS011;23169;41.804;12.596;2023-04-24T01:02:45;7.25;;;3.95;;
37280;SDS011;23169;41.804;12.596;2023-04-24T01:05:15;12.10;;;4.15;;
37280;SDS011;23169;41.804;12.596;2023-04-24T01:07:47;11.60;;;3.40;;
37280;SDS011;23169;41.804;12.596;2023-04-24T01:10:16;11.90;;;4.38;;
37280;SDS011;23169;41.804;12.596;2023-04-24T01:12:46;9.60;;;3.60;;
37280;SDS011;23169;41.804;12.596;2023-04-24T01:15:17;11.85;;;3.83;;
37280;SDS011;23169;41.804;12.596;2023-04-24T01:17:45;10.57;;;4.00;;
37280;SDS011;23169;41.804;12.596;2023-04-24T01:20:14;14.15;;;4.28;;
37280;SDS011;23169;41.804;12.596;2023-04-24T01:22:47;8.85;;;3.63;;
37280;SDS011;23169;41.804;12.596;2023-04-24T01:25:16;13.60;;;3.85;;
37280;SDS011;23169;41.804;12.596;2023-04-24T01:27:46;12.07;;;4.15;;
37280;SDS011;23169;41.804;12.596;2023-04-24T01:30:15;8.85;;;3.58;;
37280;SDS011;23169;41.804;12.596;2023-04-24T01:32:44;8.32;;;3.33;;
37280;SDS011;23169;41.804;12.596;2023-04-24T01:35:14;12.93;;;4.88;;
37280;SDS011;23169;41.804;12.596;2023-04-24T01:37:43;11.77;;;3.67;;
37280;SDS011;23169;41.804;12.596;2023-04-24T01:40:12;13.90;;;3.90;;
37280;SDS011;23169;41.804;12.596;2023-04-24T01:42:41;10.90;;;3.50;;
37280;SDS011;23169;41.804;12.596;2023-04-24T01:45:11;13.30;;;4.00;;
37280;SDS011;23169;41.804;12.596;2023-04-24T01:47:41;10.07;;;3.42;;
37280;SDS011;23169;41.804;12.596;2023-04-24T01:50:11;9.35;;;3.47;;
37280;SDS011;23169;41.804;12.596;2023-04-24T01:52:40;10.55;;;3.72;;
37280;SDS011;23169;41.804;12.596;2023-04-24T01:55:09;13.35;;;4.20;;
37280;SDS011;23169;41.804;12.596;2023-04-24T01:57:38;11.27;;;4.05;;
37280;SDS011;23169;41.804;12.596;2023-04-24T02:00:11;10.32;;;3.85;;
37280;SDS011;23169;41.804;12.596;2023-04-24T02:02:41;10.35;;;3.60;;
37280;SDS011;23169;41.804;12.596;2023-04-24T02:05:09;13.18;;;4.03;;
37280;SDS011;23169;41.804;12.596;2023-04-24T02:07:39;11.80;;;4.05;;
37280;SDS011;23169;41.804;12.596;2023-04-24T02:10:07;12.65;;;4.57;;
37280;SDS011;23169;41.804;12.596;2023-04-24T02:12:37;13.18;;;3.83;;
37280;SDS011;23169;41.804;12.596;2023-04-24T02:15:06;14.45;;;4.72;;
37280;SDS011;23169;41.804;12.596;2023-04-24T02:17:35;10.75;;;3.85;;
37280;SDS011;23169;41.804;12.596;2023-04-24T02:20:04;8.38;;;5.40;;
37280;SDS011;23169;41.804;12.596;2023-04-24T02:22:34;8.88;;;4.13;;
37280;SDS011;23169;41.804;12.596;2023-04-24T02:25:04;9.10;;;3.85;;
37280;SDS011;23169;41.804;12.596;2023-04-24T02:27:33;10.93;;;4.18;;
37280;SDS011;23169;41.804;12.596;2023-04-24T02:30:02;13.75;;;4.50;;
37280;SDS011;23169;41.804;12.596;2023-04-24T02:32:31;10.02;;;4.38;;
37280;SDS011;23169;41.804;12.596;2023-04-24T02:34:59;15.77;;;4.43;;
37280;SDS011;23169;41.804;12.596;2023-04-24T02:37:28;20.17;;;6.60;;
37280;SDS011;23169;41.804;12.596;2023-04-24T02:39:57;10.88;;;4.15;;
37280;SDS011;23169;41.804;12.596;2023-04-24T02:42:28;17.33;;;4.25;;
37280;SDS011;23169;41.804;12.596;2023-04-24T02:44:58;9.88;;;4.30;;
37280;SDS011;23169;41.804;12.596;2023-04-24T02:47:27;12.43;;;4.05;;
37280;SDS011;23169;41.804;12.596;2023-04-24T02:49:57;15.65;;;4.30;;
37280;SDS011;23169;41.804;12.596;2023-04-24T02:52:26;13.52;;;4.70;;
37280;SDS011;23169;41.804;12.596;2023-04-24T02:54:54;17.20;;;4.47;;
37280;SDS011;23169;41.804;12.596;2023-04-24T02:57:26;12.07;;;4.63;;
37280;SDS011;23169;41.804;12.596;2023-04-24T02:59:54;14.85;;;4.57;;
37280;SDS011;23169;41.804;12.596;2023-04-24T03:02:23;16.02;;;4.60;;
37280;SDS011;23169;41.804;12.596;2023-04-24T03:04:52;13.85;;;4.47;;
37280;SDS011;23169;41.804;12.596;2023-04-24T03:07:20;15.60;;;5.13;;
37280;SDS011;23169;41.804;12.596;2023-04-24T03:09:49;11.45;;;4.38;;
37280;SDS011;23169;41.804;12.596;2023-04-24T03:12:18;14.25;;;4.43;;
37280;SDS011;23169;41.804;12.596;2023-04-24T03:14:46;11.60;;;4.07;;
37280;SDS011;23169;41.804;12.596;2023-04-24T03:17:17;11.35;;;4.70;;
37280;SDS011;23169;41.804;12.596;2023-04-24T03:19:46;10.60;;;4.50;;
37280;SDS011;23169;41.804;12.596;2023-04-24T03:22:14;9.32;;;4.70;;
37280;SDS011;23169;41.804;12.596;2023-04-24T03:24:43;11.07;;;4.55;;
37280;SDS011;23169;41.804;12.596;2023-04-24T03:27:11;11.65;;;4.28;;
37280;SDS011;23169;41.804;12.596;2023-04-24T03:29:40;11.73;;;4.30;;
37280;SDS011;23169;41.804;12.596;2023-04-24T03:32:08;14.32;;;4.57;;
37280;SDS011;23169;41.804;12.596;2023-04-24T03:34:37;11.43;;;4.57;;
37280;SDS011;23169;41.804;12.596;2023-04-24T03:37:08;14.07;;;4.55;;
37280;SDS011;23169;41.804;12.596;2023-04-24T03:39:37;10.95;;;4.35;;
37280;SDS011;23169;41.804;12.596;2023-04-24T03:42:05;11.60;;;4.60;;
37280;SDS011;23169;41.804;12.596;2023-04-24T03:44:35;10.95;;;4.40;;
37280;SDS011;23169;41.804;12.596;2023-04-24T03:47:04;13.30;;;4.90;;
37280;SDS011;23169;41.804;12.596;2023-04-24T03:49:32;10.20;;;4.38;;
37280;SDS011;23169;41.804;12.596;2023-04-24T03:52:01;11.75;;;4.30;;
37280;SDS011;23169;41.804;12.596;2023-04-24T03:54:30;9.25;;;4.97;;
37280;SDS011;23169;41.804;12.596;2023-04-24T03:57:00;12.48;;;4.72;;
37280;SDS011;23169;41.804;12.596;2023-04-24T03:59:31;14.05;;;4.72;;
37280;SDS011;23169;41.804;12.596;2023-04-24T04:02:01;15.70;;;4.70;;
37280;SDS011;23169;41.804;12.596;2023-04-24T04:04:32;8.45;;;4.85;;
37280;SDS011;23169;41.804;12.596;2023-04-24T04:07:00;12.57;;;4.63;;
37280;SDS011;23169;41.804;12.596;2023-04-24T04:09:30;11.38;;;4.72;;
37280;SDS011;23169;41.804;12.596;2023-04-24T04:11:59;16.70;;;5.05;;
37280;SDS011;23169;41.804;12.596;2023-04-24T04:14:29;15.23;;;4.82;;
37280;SDS011;23169;41.804;12.596;2023-04-24T04:16:57;12.00;;;5.50;;
37280;SDS011;23169;41.804;12.596;2023-04-24T04:19:26;12.63;;;5.88;;
37280;SDS011;23169;41.804;12.596;2023-04-24T04:21:55;15.18;;;5.50;;
37280;SDS011;23169;41.804;12.596;2023-04-24T04:24:24;18.70;;;5.35;;
37280;SDS011;23169;41.804;12.596;2023-04-24T04:26:54;14.68;;;5.13;;
37280;SDS011;23169;41.804;12.596;2023-04-24T04:29:24;14.32;;;5.47;;
37280;SDS011;23169;41.804;12.596;2023-04-24T04:31:53;18.15;;;6.35;;
37280;SDS011;23169;41.804;12.596;2023-04-24T04:34:25;19.10;;;6.28;;
37280;SDS011;23169;41.804;12.596;2023-04-24T04:36:54;13.73;;;5.43;;
37280;SDS011;23169;41.804;12.596;2023-04-24T04:39:24;16.92;;;5.20;;
37280;SDS011;23169;41.804;12.596;2023-04-24T04:41:56;14.00;;;5.60;;
37280;SDS011;23169;41.804;12.596;2023-04-24T04:44:24;13.05;;;5.60;;
37280;SDS011;23169;41.804;12.596;2023-04-24T04:46:53;14.63;;;5.35;;
37280;SDS011;23169;41.804;12.596;2023-04-24T04:49:24;19.05;;;5.75;;
37280;SDS011;23169;41.804;12.596;2023-04-24T04:51:53;15.57;;;5.35;;
37280;SDS011;23169;41.804;12.596;2023-04-24T04:54:21;12.85;;;5.72;;
37280;SDS011;23169;41.804;12.596;2023-04-24T04:56:52;13.27;;;5.10;;
37280;SDS011;23169;41.804;12.596;2023-04-24T04:59:21;14.32;;;5.72;;
37280;SDS011;23169;41.804;12.596;2023-04-24T05:01:49;15.30;;;5.80;;
37280;SDS011;23169;41.804;12.596;2023-04-24T05:04:18;15.88;;;5.30;;
37280;SDS011;23169;41.804;12.596;2023-04-24T05:06:46;13.55;;;5.68;;
37280;SDS011;23169;41.804;12.596;2023-04-24T05:09:15;15.88;;;6.03;;
37280;SDS011;23169;41.804;12.596;2023-04-24T05:11:44;15.52;;;5.70;;
37280;SDS011;23169;41.804;12.596;2023-04-24T05:14:12;12.48;;;5.32;;
37280;SDS011;23169;41.804;12.596;2023-04-24T05:16:43;16.60;;;5.60;;
37280;SDS011;23169;41.804;12.596;2023-04-24T05:19:11;15.85;;;5.90;;
37280;SDS011;23169;41.804;12.596;2023-04-24T05:21:41;21.45;;;5.78;;
37280;SDS011;23169;41.804;12.596;2023-04-24T05:24:12;21.80;;;7.00;;
37280;SDS011;23169;41.804;12.596;2023-04-24T05:26:41;20.20;;;6.05;;
37280;SDS011;23169;41.804;12.596;2023-04-24T05:29:09;13.48;;;5.53;;
37280;SDS011;23169;41.804;12.596;2023-04-24T05:31:37;16.58;;;5.45;;
37280;SDS011;23169;41.804;12.596;2023-04-24T05:34:06;14.98;;;5.95;;
37280;SDS011;23169;41.804;12.596;2023-04-24T05:36:35;19.60;;;5.68;;
37280;SDS011;23169;41.804;12.596;2023-04-24T05:39:04;17.88;;;5.70;;
37280;SDS011;23169;41.804;12.596;2023-04-24T05:41:33;17.88;;;5.65;;
37280;SDS011;23169;41.804;12.596;2023-04-24T05:44:02;15.75;;;6.20;;
37280;SDS011;23169;41.804;12.596;2023-04-24T05:46:35;13.00;;;5.50;;
37280;SDS011;23169;41.804;12.596;2023-04-24T05:49:03;13.55;;;6.13;;
37280;SDS011;23169;41.804;12.596;2023-04-24T05:51:32;15.88;;;6.50;;
37280;SDS011;23169;41.804;12.596;2023-04-24T05:54:00;16.55;;;6.22;;
37280;SDS011;23169;41.804;12.596;2023-04-24T05:56:30;20.38;;;7.20;;
37280;SDS011;23169;41.804;12.596;2023-04-24T05:59:03;15.82;;;7.53;;
37280;SDS011;23169;41.804;12.596;2023-04-24T06:01:32;20.00;;;7.20;;
37280;SDS011;23169;41.804;12.596;2023-04-24T06:04:03;19.60;;;7.32;;
37280;SDS011;23169;41.804;12.596;2023-04-24T06:06:32;20.23;;;7.32;;
37280;SDS011;23169;41.804;12.596;2023-04-24T06:09:01;20.10;;;9.02;;
37280;SDS011;23169;41.804;12.596;2023-04-24T06:11:31;18.30;;;7.70;;
37280;SDS011;23169;41.804;12.596;2023-04-24T06:13:59;16.45;;;7.88;;
37280;SDS011;23169;41.804;12.596;2023-04-24T06:16:29;20.23;;;7.78;;
37280;SDS011;23169;41.804;12.596;2023-04-24T06:18:58;15.95;;;7.32;;
37280;SDS011;23169;41.804;12.596;2023-04-24T06:21:30;17.70;;;7.93;;
37280;SDS011;23169;41.804;12.596;2023-04-24T06:23:59;23.92;;;8.30;;
37280;SDS011;23169;41.804;12.596;2023-04-24T06:26:28;18.20;;;7.80;;
37280;SDS011;23169;41.804;12.596;2023-04-24T06:28:57;22.83;;;8.13;;
37280;SDS011;23169;41.804;12.596;2023-04-24T06:31:27;21.45;;;7.65;;
37280;SDS011;23169;41.804;12.596;2023-04-24T06:33:56;26.15;;;8.50;;
37280;SDS011;23169;41.804;12.596;2023-04-24T06:36:24;22.35;;;8.02;;
37280;SDS011;23169;41.804;12.596;2023-04-24T06:38:53;20.60;;;9.52;;
37280;SDS011;23169;41.804;12.596;2023-04-24T06:41:22;19.17;;;7.93;;
37280;SDS011;23169;41.804;12.596;2023-04-24T06:43:50;25.42;;;8.70;;
37280;SDS011;23169;41.804;12.596;2023-04-24T06:46:19;22.58;;;8.50;;
37280;SDS011;23169;41.804;12.596;2023-04-24T06:48:53;17.60;;;8.00;;
37280;SDS011;23169;41.804;12.596;2023-04-24T06:51:26;26.35;;;8.57;;
37280;SDS011;23169;41.804;12.596;2023-04-24T06:53:55;27.27;;;8.73;;
37280;SDS011;23169;41.804;12.596;2023-04-24T06:56:26;19.85;;;8.65;;
37280;SDS011;23169;41.804;12.596;2023-04-24T06:58:56;23.10;;;8.50;;
37280;SDS011;23169;41.804;12.596;2023-04-24T07:01:27;21.98;;;8.80;;
37280;SDS011;23169;41.804;12.596;2023-04-24T07:03:59;19.70;;;8.32;;
37280;SDS011;23169;41.804;12.596;2023-04-24T07:06:28;23.27;;;8.70;;
37280;SDS011;23169;41.804;12.596;2023-04-24T07:08:58;26.60;;;8.95;;
37280;SDS011;23169;41.804;12.596;2023-04-24T07:11:28;23.88;;;9.18;;
37280;SDS011;23169;41.804;12.596;2023-04-24T07:13:57;21.92;;;8.85;;
37280;SDS011;23169;41.804;12.596;2023-04-24T07:16:25;24.30;;;9.20;;
37280;SDS011;23169;41.804;12.596;2023-04-24T07:18:54;27.48;;;10.20;;
37280;SDS011;23169;41.804;12.596;2023-04-24T07:21:23;24.27;;;8.98;;
37280;SDS011;23169;41.804;12.596;2023-04-24T07:23:52;19.80;;;8.18;;
37280;SDS011;23169;41.804;12.596;2023-04-24T07:26:21;19.90;;;7.80;;
37280;SDS011;23169;41.804;12.596;2023-04-24T07:28:54;21.27;;;7.63;;
37280;SDS011;23169;41.804;12.596;2023-04-24T07:31:23;19.83;;;7.20;;
37280;SDS011;23169;41.804;12.596;2023-04-24T07:33:54;19.52;;;8.15;;
37280;SDS011;23169;41.804;12.596;2023-04-24T07:36:26;22.25;;;7.65;;
37280;SDS011;23169;41.804;12.596;2023-04-24T07:38:55;22.00;;;7.68;;
37280;SDS011;23169;41.804;12.596;2023-04-24T07:41:24;24.48;;;8.65;;
37280;SDS011;23169;41.804;12.596;2023-04-24T07:43:56;23.25;;;8.45;;
37280;SDS011;23169;41.804;12.596;2023-04-24T07:46:27;19.67;;;7.35;;
37280;SDS011;23169;41.804;12.596;2023-04-24T07:48:58;25.52;;;8.45;;
37280;SDS011;23169;41.804;12.596;2023-04-24T07:51:31;21.58;;;8.52;;
37280;SDS011;23169;41.804;12.596;2023-04-24T07:54:05;20.52;;;7.20;;
37280;SDS011;23169;41.804;12.596;2023-04-24T07:56:35;21.00;;;5.97;;
37280;SDS011;23169;41.804;12.596;2023-04-24T07:59:06;22.13;;;6.53;;
37280;SDS011;23169;41.804;12.596;2023-04-24T08:01:34;24.40;;;7.45;;
37280;SDS011;23169;41.804;12.596;2023-04-24T08:04:03;21.50;;;6.40;;
37280;SDS011;23169;41.804;12.596;2023-04-24T08:06:32;19.77;;;6.43;;
37280;SDS011;23169;41.804;12.596;2023-04-24T08:09:01;14.82;;;5.75;;
37280;SDS011;23169;41.804;12.596;2023-04-24T08:11:30;20.55;;;5.85;;
37280;SDS011;23169;41.804;12.596;2023-04-24T08:14:00;18.08;;;5.22;;
37280;SDS011;23169;41.804;12.596;2023-04-24T08:16:29;18.00;;;5.53;;
37280;SDS011;23169;41.804;12.596;2023-04-24T08:19:00;22.02;;;5.72;;
37280;SDS011;23169;41.804;12.596;2023-04-24T08:21:28;18.10;;;4.95;;
37280;SDS011;23169;41.804;12.596;2023-04-24T08:23:56;17.05;;;5.57;;
37280;SDS011;23169;41.804;12.596;2023-04-24T08:26:25;22.27;;;5.00;;
37280;SDS011;23169;41.804;12.596;2023-04-24T08:28:53;12.23;;;4.97;;
37280;SDS011;23169;41.804;12.596;2023-04-24T08:31:22;25.33;;;5.93;;
37280;SDS011;23169;41.804;12.596;2023-04-24T08:33:53;17.75;;;5.93;;
37280;SDS011;23169;41.804;12.596;2023-04-24T08:36:21;19.52;;;5.05;;
37280;SDS011;23169;41.804;12.596;2023-04-24T08:38:50;13.48;;;4.97;;
37280;SDS011;23169;41.804;12.596;2023-04-24T08:41:18;24.38;;;6.00;;
37280;SDS011;23169;41.804;12.596;2023-04-24T08:43:47;22.15;;;5.85;;
37280;SDS011;23169;41.804;12.596;2023-04-24T08:46:18;20.75;;;5.72;;
37280;SDS011;23169;41.804;12.596;2023-04-24T08:48:48;16.83;;;5.70;;
37280;SDS011;23169;41.804;12.596;2023-04-24T08:51:17;14.05;;;4.90;;
37280;SDS011;23169;41.804;12.596;2023-04-24T08:53:47;25.00;;;5.60;;
37280;SDS011;23169;41.804;12.596;2023-04-24T08:56:17;17.13;;;5.10;;
37280;SDS011;23169;41.804;12.596;2023-04-24T08:58:46;14.52;;;4.78;;
37280;SDS011;23169;41.804;12.596;2023-04-24T09:01:15;18.83;;;5.40;;
37280;SDS011;23169;41.804;12.596;2023-04-24T09:03:50;20.13;;;5.38;;
37280;SDS011;23169;41.804;12.596;2023-04-24T09:06:21;23.85;;;6.30;;
37280;SDS011;23169;41.804;12.596;2023-04-24T09:08:50;18.00;;;5.40;;
37280;SDS011;23169;41.804;12.596;2023-04-24T09:11:23;18.75;;;6.40;;
37280;SDS011;23169;41.804;12.596;2023-04-24T09:13:55;19.15;;;5.78;;
37280;SDS011;23169;41.804;12.596;2023-04-24T09:16:25;20.05;;;5.10;;
37280;SDS011;23169;41.804;12.596;2023-04-24T09:18:55;24.80;;;5.82;;
37280;SDS011;23169;41.804;12.596;2023-04-24T09:21:23;20.67;;;5.03;;
37280;SDS011;23169;41.804;12.596;2023-04-24T09:24:02;20.45;;;5.43;;
37280;SDS011;23169;41.804;12.596;2023-04-24T09:26:35;21.20;;;4.80;;
37280;SDS011;23169;41.804;12.596;2023-04-24T09:29:04;14.43;;;4.35;;
37280;SDS011;23169;41.804;12.596;2023-04-24T09:31:32;17.70;;;4.53;;
37280;SDS011;23169;41.804;12.596;2023-04-24T09:34:02;21.20;;;5.35;;
37280;SDS011;23169;41.804;12.596;2023-04-24T09:36:34;18.27;;;5.30;;
37280;SDS011;23169;41.804;12.596;2023-04-24T09:39:08;18.25;;;5.03;;
37280;SDS011;23169;41.804;12.596;2023-04-24T09:41:55;28.00;;;4.90;;
37280;SDS011;23169;41.804;12.596;2023-04-24T09:44:30;17.35;;;5.05;;
37280;SDS011;23169;41.804;12.596;2023-04-24T09:47:03;17.88;;;4.97;;
37280;SDS011;23169;41.804;12.596;2023-04-24T09:49:38;18.63;;;4.95;;
37280;SDS011;23169;41.804;12.596;2023-04-24T09:52:11;23.33;;;5.47;;
37280;SDS011;23169;41.804;12.596;2023-04-24T09:54:40;15.00;;;4.53;;
37280;SDS011;23169;41.804;12.596;2023-04-24T09:57:08;20.33;;;5.32;;
37280;SDS011;23169;41.804;12.596;2023-04-24T09:59:46;22.63;;;5.70;;
37280;SDS011;23169;41.804;12.596;2023-04-24T10:02:18;17.00;;;4.65;;
37280;SDS011;23169;41.804;12.596;2023-04-24T10:04:54;14.18;;;4.38;;
37280;SDS011;23169;41.804;12.596;2023-04-24T10:07:27;14.52;;;4.63;;
37280;SDS011;23169;41.804;12.596;2023-04-24T10:09:55;18.48;;;4.30;;
37280;SDS011;23169;41.804;12.596;2023-04-24T10:12:24;15.73;;;4.43;;
37280;SDS011;23169;41.804;12.596;2023-04-24T10:14:54;19.08;;;4.65;;
37280;SDS011;23169;41.804;12.596;2023-04-24T10:17:23;19.10;;;3.97;;
37280;SDS011;23169;41.804;12.596;2023-04-24T10:19:53;24.13;;;5.45;;
37280;SDS011;23169;41.804;12.596;2023-04-24T10:22:23;22.02;;;5.75;;
37280;SDS011;23169;41.804;12.596;2023-04-24T10:24:52;14.55;;;4.15;;
37280;SDS011;23169;41.804;12.596;2023-04-24T10:27:20;15.82;;;4.28;;
37280;SDS011;23169;41.804;12.596;2023-04-24T10:29:51;21.30;;;4.28;;
37280;SDS011;23169;41.804;12.596;2023-04-24T10:32:21;19.25;;;5.00;;
37280;SDS011;23169;41.804;12.596;2023-04-24T10:34:50;15.48;;;4.10;;
37280;SDS011;23169;41.804;12.596;2023-04-24T10:37:20;21.85;;;4.60;;
37280;SDS011;23169;41.804;12.596;2023-04-24T10:39:49;14.77;;;4.20;;
37280;SDS011;23169;41.804;12.596;2023-04-24T10:42:19;17.42;;;4.45;;
37280;SDS011;23169;41.804;12.596;2023-04-24T10:44:49;19.73;;;4.90;;
37280;SDS011;23169;41.804;12.596;2023-04-24T10:47:18;13.90;;;4.15;;
37280;SDS011;23169;41.804;12.596;2023-04-24T10:49:47;24.73;;;5.25;;
37280;SDS011;23169;41.804;12.596;2023-04-24T10:52:19;19.80;;;4.82;;
37280;SDS011;23169;41.804;12.596;2023-04-24T10:54:48;19.17;;;4.53;;
37280;SDS011;23169;41.804;12.596;2023-04-24T11:00:09;22.83;;;4.20;;
37280;SDS011;23169;41.804;12.596;2023-04-24T11:02:41;21.50;;;4.63;;
37280;SDS011;23169;41.804;12.596;2023-04-24T11:05:16;27.60;;;4.30;;
37280;SDS011;23169;41.804;12.596;2023-04-24T11:10:45;16.23;;;3.33;;
37280;SDS011;23169;41.804;12.596;2023-04-24T11:13:16;17.15;;;4.18;;
37280;SDS011;23169;41.804;12.596;2023-04-24T11:15:45;19.05;;;4.28;;
37280;SDS011;23169;41.804;12.596;2023-04-24T11:18:51;20.83;;;4.20;;
37280;SDS011;23169;41.804;12.596;2023-04-24T11:21:31;24.42;;;4.60;;
37280;SDS011;23169;41.804;12.596;2023-04-24T11:29:48;20.88;;;3.45;;
37280;SDS011;23169;41.804;12.596;2023-04-24T11:34:53;18.35;;;3.78;;
37280;SDS011;23169;41.804;12.596;2023-04-24T11:37:40;19.60;;;4.15;;
37280;SDS011;23169;41.804;12.596;2023-04-24T11:40:10;17.55;;;3.70;;
37280;SDS011;23169;41.804;12.596;2023-04-24T11:42:41;21.10;;;4.18;;
37280;SDS011;23169;41.804;12.596;2023-04-24T11:45:14;20.80;;;3.75;;
37280;SDS011;23169;41.804;12.596;2023-04-24T11:47:44;21.63;;;4.30;;
37280;SDS011;23169;41.804;12.596;2023-04-24T11:50:15;25.58;;;4.15;;
37280;SDS011;23169;41.804;12.596;2023-04-24T11:52:48;15.60;;;3.72;;
37280;SDS011;23169;41.804;12.596;2023-04-24T11:57:47;21.52;;;4.07;;
37280;SDS011;23169;41.804;12.596;2023-04-24T12:02:46;15.20;;;4.28;;
37280;SDS011;23169;41.804;12.596;2023-04-24T12:05:25;17.15;;;3.72;;
37280;SDS011;23169;41.804;12.596;2023-04-24T12:07:54;20.75;;;4.00;;
37280;SDS011;23169;41.804;12.596;2023-04-24T12:10:24;24.90;;;4.38;;
37280;SDS011;23169;41.804;12.596;2023-04-24T12:12:55;16.20;;;4.15;;
37280;SDS011;23169;41.804;12.596;2023-04-24T12:15:24;22.58;;;3.80;;
37280;SDS011;23169;41.804;12.596;2023-04-24T12:17:54;15.82;;;3.75;;
37280;SDS011;23169;41.804;12.596;2023-04-24T12:20:24;19.20;;;4.03;;
37280;SDS011;23169;41.804;12.596;2023-04-24T12:22:55;16.63;;;3.58;;
37280;SDS011;23169;41.804;12.596;2023-04-24T12:25:26;12.38;;;3.30;;
37280;SDS011;23169;41.804;12.596;2023-04-24T12:30:33;17.58;;;3.55;;
37280;SDS011;23169;41.804;12.596;2023-04-24T12:33:05;16.60;;;3.70;;
37280;SDS011;23169;41.804;12.596;2023-04-24T12:35:34;18.80;;;3.80;;
37280;SDS011;23169;41.804;12.596;2023-04-24T12:38:08;12.32;;;3.53;;
37280;SDS011;23169;41.804;12.596;2023-04-24T12:40:42;20.40;;;3.83;;
37280;SDS011;23169;41.804;12.596;2023-04-24T12:43:15;27.80;;;4.38;;
37280;SDS011;23169;41.804;12.596;2023-04-24T12:45:47;19.77;;;4.03;;
37280;SDS011;23169;41.804;12.596;2023-04-24T12:48:16;27.98;;;5.72;;
37280;SDS011;23169;41.804;12.596;2023-04-24T12:50:45;20.70;;;3.83;;
37280;SDS011;23169;41.804;12.596;2023-04-24T12:53:14;22.50;;;4.43;;
37280;SDS011;23169;41.804;12.596;2023-04-24T12:55:44;21.58;;;4.82;;
37280;SDS011;23169;41.804;12.596;2023-04-24T12:58:13;17.50;;;4.15;;
37280;SDS011;23169;41.804;12.596;2023-04-24T13:00:42;17.17;;;3.83;;
37280;SDS011;23169;41.804;12.596;2023-04-24T13:03:11;19.58;;;3.35;;
37280;SDS011;23169;41.804;12.596;2023-04-24T13:05:40;19.15;;;3.95;;
37280;SDS011;23169;41.804;12.596;2023-04-24T13:08:10;12.30;;;3.20;;
37280;SDS011;23169;41.804;12.596;2023-04-24T13:10:40;18.30;;;3.88;;
37280;SDS011;23169;41.804;12.596;2023-04-24T13:13:10;18.75;;;3.63;;
37280;SDS011;23169;41.804;12.596;2023-04-24T13:15:38;18.05;;;4.45;;
37280;SDS011;23169;41.804;12.596;2023-04-24T13:18:06;20.25;;;3.83;;
37280;SDS011;23169;41.804;12.596;2023-04-24T13:20:36;14.55;;;3.80;;
37280;SDS011;23169;41.804;12.596;2023-04-24T13:23:04;16.85;;;3.70;;
37280;SDS011;23169;41.804;12.596;2023-04-24T13:25:34;15.85;;;3.70;;
37280;SDS011;23169;41.804;12.596;2023-04-24T13:28:06;17.85;;;3.58;;
37280;SDS011;23169;41.804;12.596;2023-04-24T13:30:35;18.02;;;3.47;;
37280;SDS011;23169;41.804;12.596;2023-04-24T13:33:03;18.20;;;3.75;;
37280;SDS011;23169;41.804;12.596;2023-04-24T13:35:32;14.52;;;3.40;;
37280;SDS011;23169;41.804;12.596;2023-04-24T13:38:00;13.25;;;3.70;;
37280;SDS011;23169;41.804;12.596;2023-04-24T13:40:34;20.33;;;3.63;;
37280;SDS011;23169;41.804;12.596;2023-04-24T13:43:03;13.38;;;3.42;;
37280;SDS011;23169;41.804;12.596;2023-04-24T13:45:32;21.83;;;4.32;;
37280;SDS011;23169;41.804;12.596;2023-04-24T13:48:01;15.05;;;3.75;;
37280;SDS011;23169;41.804;12.596;2023-04-24T13:50:31;13.50;;;2.80;;
37280;SDS011;23169;41.804;12.596;2023-04-24T13:52:59;13.27;;;3.60;;
37280;SDS011;23169;41.804;12.596;2023-04-24T13:55:29;12.93;;;2.88;;
37280;SDS011;23169;41.804;12.596;2023-04-24T13:57:58;18.55;;;3.65;;
37280;SDS011;23169;41.804;12.596;2023-04-24T14:00:28;11.23;;;2.83;;
37280;SDS011;23169;41.804;12.596;2023-04-24T14:02:56;19.48;;;4.60;;
37280;SDS011;23169;41.804;12.596;2023-04-24T14:05:25;22.10;;;4.15;;
37280;SDS011;23169;41.804;12.596;2023-04-24T14:07:53;17.20;;;3.40;;
37280;SDS011;23169;41.804;12.596;2023-04-24T14:10:23;15.25;;;3.35;;
37280;SDS011;23169;41.804;12.596;2023-04-24T14:12:54;19.00;;;3.70;;
37280;SDS011;23169;41.804;12.596;2023-04-24T14:15:22;16.35;;;3.75;;
37280;SDS011;23169;41.804;12.596;2023-04-24T14:17:51;19.08;;;4.40;;
37280;SDS011;23169;41.804;12.596;2023-04-24T14:20:20;15.77;;;3.05;;
37280;SDS011;23169;41.804;12.596;2023-04-24T14:22:48;14.60;;;3.40;;
37280;SDS011;23169;41.804;12.596;2023-04-24T14:25:17;19.17;;;3.67;;
37280;SDS011;23169;41.804;12.596;2023-04-24T14:27:46;12.20;;;3.40;;
37280;SDS011;23169;41.804;12.596;2023-04-24T14:30:14;18.60;;;3.30;;
37280;SDS011;23169;41.804;12.596;2023-04-24T14:32:44;20.00;;;4.20;;
37280;SDS011;23169;41.804;12.596;2023-04-24T14:35:13;16.38;;;3.92;;
37280;SDS011;23169;41.804;12.596;2023-04-24T14:37:43;21.90;;;3.92;;
37280;SDS011;23169;41.804;12.596;2023-04-24T14:40:12;21.83;;;3.92;;
37280;SDS011;23169;41.804;12.596;2023-04-24T14:42:41;17.65;;;3.38;;
37280;SDS011;23169;41.804;12.596;2023-04-24T14:45:10;15.65;;;3.60;;
37280;SDS011;23169;41.804;12.596;2023-04-24T14:47:39;15.75;;;3.95;;
37280;SDS011;23169;41.804;12.596;2023-04-24T14:50:07;16.73;;;3.40;;
37280;SDS011;23169;41.804;12.596;2023-04-24T14:52:37;20.00;;;3.90;;
37280;SDS011;23169;41.804;12.596;2023-04-24T14:55:05;19.33;;;3.55;;
37280;SDS011;23169;41.804;12.596;2023-04-24T14:57:35;12.68;;;2.95;;